D/T METAR WX W/DIR W/SPE G/SPE TEMP DEWP
22/01/20 06:50 EGPF 220650Z AUTO 24005KT 9999 FEW016 08/07 Q1037 WSW (240°) 5.8mph 8°C 7°C
22/01/20 06:20 EGPF 220620Z AUTO 24007KT 9999 FEW008 SCT011 BKN016 08/08 Q1037 WSW (240°) 8.1mph 8°C 8°C
22/01/20 05:50 EGPF 220550Z AUTO 25010KT 9999 OVC009 09/09 Q1037 WSW (250°) 11.5mph 9°C 9°C
22/01/20 05:20 EGPF 220520Z AUTO 22007KT 9999 BKN010 OVC015 09/09 Q1037 SW (220°) 8.1mph 9°C 9°C
22/01/20 04:50 EGPF 220450Z AUTO 22006KT 9999 OVC012 09/09 Q1037 SW (220°) 6.9mph 9°C 9°C
22/01/20 04:20 EGPF 220420Z AUTO 24009KT 9999 OVC011 10/09 Q1037 WSW (240°) 10.4mph 10°C 9°C
22/01/20 03:50 EGPF 220350Z AUTO 22008KT 9999 OVC010 09/09 Q1037 SW (220°) 9.2mph 9°C 9°C
22/01/20 03:20 EGPF 220320Z AUTO 21004KT 9999 OVC011 09/09 Q1037 SSW (210°) 4.6mph 9°C 9°C
22/01/20 02:50 EGPF 220250Z AUTO 23007KT 9999 OVC011 09/09 Q1038 SW (230°) 8.1mph 9°C 9°C
22/01/20 02:20 EGPF 220220Z AUTO 24006KT 9999 OVC009 10/09 Q1038 WSW (240°) 6.9mph 10°C 9°C
22/01/20 01:50 EGPF 220150Z AUTO 23005KT 190V260 9999 OVC007 10/09 Q1038 SW (230°) 5.8mph 10°C 9°C
22/01/20 01:20 EGPF 220120Z AUTO 23006KT 9999 -RA OVC008 09/09 Q1038 -RA SW (230°) 6.9mph 9°C 9°C
22/01/20 00:50 EGPF 220050Z AUTO 22007KT 9999 OVC010 09/09 Q1038 SW (220°) 8.1mph 9°C 9°C
22/01/20 00:20 EGPF 220020Z AUTO 25006KT 9999 OVC010 09/09 Q1038 WSW (250°) 6.9mph 9°C 9°C
21/01/20 23:50 EGPF 212350Z AUTO 26007KT 9999 OVC012 09/09 Q1038 W (260°) 8.1mph 9°C 9°C
21/01/20 23:20 EGPF 212320Z AUTO 24009KT 9999 -RA OVC014 10/09 Q1038 -RA WSW (240°) 10.4mph 10°C 9°C
21/01/20 22:50 EGPF 212250Z AUTO 23009KT 9999 SCT011 BKN017 09/09 Q1038 SW (230°) 10.4mph 9°C 9°C
21/01/20 22:20 EGPF 212220Z AUTO 22009KT 9999 -RA SCT007 BKN011 BKN019 09/09 Q1038 -RA SW (220°) 10.4mph 9°C 9°C
21/01/20 21:50 EGPF 212150Z AUTO 24007KT 9999 -RA SCT008 BKN021 BKN049 09/09 Q1038 -RA WSW (240°) 8.1mph 9°C 9°C
21/01/20 21:20 EGPF 212120Z AUTO 23010KT 7000 -RA SCT010 SCT036 09/09 Q1038 -RA SW (230°) 11.5mph 9°C 9°C
21/01/20 20:50 EGPF 212050Z AUTO 22007KT 9999 BKN017 BKN039 09/08 Q1038 SW (220°) 8.1mph 9°C 8°C
21/01/20 20:20 EGPF 212020Z AUTO 23009KT 9999 BKN012 09/08 Q1038 SW (230°) 10.4mph 9°C 8°C
21/01/20 19:50 EGPF 211950Z AUTO 23010KT 9999 OVC010 09/09 Q1038 SW (230°) 11.5mph 9°C 9°C
21/01/20 19:20 EGPF 211920Z AUTO 22011KT 9999 OVC011 10/09 Q1038 SW (220°) 12.7mph 10°C 9°C
21/01/20 18:50 EGPF 211850Z AUTO 23009KT 9999 OVC009 10/09 Q1038 SW (230°) 10.4mph 10°C 9°C
21/01/20 18:20 EGPF 211820Z AUTO 22009KT 7000 OVC007 09/09 Q1038 SW (220°) 10.4mph 9°C 9°C
21/01/20 17:50 EGPF 211750Z AUTO 23007KT 9999 OVC007 10/09 Q1037 SW (230°) 8.1mph 10°C 9°C
21/01/20 17:20 EGPF 211720Z AUTO 23006KT 9999 OVC008 10/09 Q1037 SW (230°) 6.9mph 10°C 9°C
21/01/20 16:50 EGPF 211650Z AUTO 25005KT 200V290 9999 OVC009 10/09 Q1037 WSW (250°) 5.8mph 10°C 9°C
21/01/20 16:20 EGPF 211620Z AUTO 23006KT 9999 OVC010 10/09 Q1037 SW (230°) 6.9mph 10°C 9°C
21/01/20 15:50 EGPF 211550Z AUTO 25006KT 9999 BKN011 10/09 Q1037 WSW (250°) 6.9mph 10°C 9°C
21/01/20 15:20 EGPF 211520Z 24011KT 9999 BKN015 BKN019 BKN026 09/08 Q1037 WSW (240°) 12.7mph 9°C 8°C
21/01/20 14:50 EGPF 211450Z 23013KT 9999 SCT012 BKN024 09/09 Q1037 SW (230°) 15.0mph 9°C 9°C
21/01/20 14:20 EGPF 211420Z AUTO 23014KT 9999 OVC009 09/08 Q1038 SW (230°) 16.1mph 9°C 8°C
21/01/20 13:50 EGPF 211350Z AUTO 24011KT 9999 BKN009 OVC028 09/09 Q1038 WSW (240°) 12.7mph 9°C 9°C
21/01/20 13:20 EGPF 211320Z AUTO 23013KT 7000 OVC005 09/09 Q1038 SW (230°) 15.0mph 9°C 9°C
21/01/20 12:50 EGPF 211250Z AUTO 25009KT 9999 BKN006 BKN010 OVC040 10/09 Q1039 WSW (250°) 10.4mph 10°C 9°C
21/01/20 12:20 EGPF 211220Z AUTO 22015KT 9999 BKN011 BKN022 OVC027 09/09 Q1039 SW (220°) 17.3mph 9°C 9°C
21/01/20 11:50 EGPF 211150Z AUTO 22012KT 9999 BKN011 OVC033 09/08 Q1039 SW (220°) 13.8mph 9°C 8°C
21/01/20 11:20 EGPF 211120Z AUTO 23012KT 9999 BKN014 BKN023 OVC037 09/09 Q1039 SW (230°) 13.8mph 9°C 9°C
21/01/20 10:50 EGPF 211050Z AUTO 22010KT 9999 SCT006 OVC014 09/08 Q1039 SW (220°) 11.5mph 9°C 8°C
21/01/20 10:20 EGPF 211020Z AUTO 21010KT 9999 BKN005 OVC013 09/08 Q1039 SSW (210°) 11.5mph 9°C 8°C
21/01/20 09:50 EGPF 210950Z AUTO 21012KT 9999 BKN018 09/08 Q1039 SSW (210°) 13.8mph 9°C 8°C
21/01/20 09:20 EGPF 210920Z AUTO 23013KT 4900 -RA FEW015 BKN025 BKN038 09/08 Q1039 -RA SW (230°) 15.0mph 9°C 8°C
21/01/20 08:50 EGPF 210850Z AUTO 23013KT 9999 SCT031 BKN042 09/08 Q1039 SW (230°) 15.0mph 9°C 8°C
21/01/20 08:20 EGPF 210820Z AUTO 23012KT 9999 SCT016 BKN023 BKN029 09/08 Q1039 SW (230°) 13.8mph 9°C 8°C
21/01/20 07:50 EGPF 210750Z AUTO 23007KT 9999 -RA SCT008 BKN012 BKN017 08/08 Q1039 -RA SW (230°) 8.1mph 8°C 8°C
21/01/20 07:20 EGPF 210720Z AUTO 23009KT 9999 BKN008 OVC013 08/08 Q1039 SW (230°) 10.4mph 8°C 8°C